Soaring Guidance
Issued by NWS Reno, NV

Home | Current Version | Previous Version | Text Only | Print | Product List | Glossary On
Versions: 1 2 3 4 5 6 7 8 9 10 11 12 13 14
000
UXUS97 KREV 271346
SRGREV

SOARING FORECAST
NATIONAL WEATHER SERVICE - RENO NV
700 AM PDT WED JUL 27 2016

THIS SOARING FORECAST IS FOR THE EASTERN SIERRA AND WESTERN NEVADA
WITH SPECIFIC INDICES FOR THE GREATER RENO AREA.

THIS FORECAST IS PREPARED DAILY BY 700 AM AND IS NOT UPDATED.

FOR CURRENT FLIGHT CONDITIONS...FORECASTS...AND ADVISORIES...ACCESS
YOUR LOCAL BRIEFING OUTLET OR FLIGHT SERVICE STATION.

*******************************************************************
FORECASTED LOCAL INDICES FOR RENO:        TODAY     YESTERDAY
FORECASTED MAX TEMP AT RENO (DEG F).....    103         101
FORECASTED TRIGGER TEMPERATURE (DEG F)..     88          81
   EXCEEDED YESTERDAY BY 1155 AM PDT
FORECASTED MAXIMUM ALTITUDE (FT MSL)....  17500       16200
FORECASTED SOARING INDEX (FPM)..........   1185         966
FORECASTED K-INDEX.........VALID 18Z....    -18         -13
FORECASTED K-INDEX.........VALID 00Z....     -6           0
FORECASTED LIFTED INDEX....VALID 18Z....     11          10
FORECASTED LIFTED INDEX....VALID 00Z....      6           6

AFTERNOON WINDS ALOFT FORECAST
MSL (FT) WIND/TEMP
9000  2811/+22
10000 2710/+19
12000 2708/+13
14000 2310/+06
16000 2213/+00
18000 2220/-06
24000 2121/-17
30000 2318/-32
34000 2319/-42
39000 2625/-51

SLIDE MOUNTAIN DATA:
     DATE       TIME     TEMP  DEWPT   RH         WIND (MPH)
                        (F)   (F)           | DIR  SPEED GUST
2016-07-27    05:30      62     9     12    | 267   15   22
2016-07-27    05:20      62     9     12    | 263   14   21
2016-07-27    05:00      62     9     12    | 266   15   22
2016-07-27    04:50      62     9     12    | 266   15   23

RENO TAF FORECAST:
KRNO 271125Z 2712/2812 VRB03KT P6SM SKC
     FM272300 29012G20KT P6SM SKC
     FM280500 30009KT P6SM SKC
     FM280900 VRB04KT P6SM SKC

CARSON CITY TAF FORECAST:
KCXP 271125Z 2712/2812 VRB03KT P6SM SKC
     FM272100 27010G18KT P6SM SKC
     FM280300 33010KT P6SM SKC
     FM280700 VRB04KT P6SM SKC

OUTLOOK FOR THE RENO-CARSON CITY-MINDEN AREA:
.THURSDAY...SUNNY IN THE MORNING THEN BECOMING PARTLY CLOUDY.
HIGHS 101 TO 106. LIGHT WINDS.

SUNRISE AND SUNSET
JULY 27 2016..........SUNRISE   555 AM PDT   SUNSET   816 PM PDT
JULY 28 2016..........SUNRISE   556 AM PDT   SUNSET   815 PM PDT


USA.gov is the U.S. government's official web portal to all federal, state and local government web resources and services.